sensor_id;sensor_type;location;lat;lon;timestamp;temperature;humidity
45945;DHT22;31655;48.972;10.686;2022-09-03T00:00:36;14.10;99.90
45945;DHT22;31655;48.972;10.686;2022-09-03T00:03:07;14.10;99.90
45945;DHT22;31655;48.972;10.686;2022-09-03T00:06:00;14.00;99.90
45945;DHT22;31655;48.972;10.686;2022-09-03T00:08:47;14.00;99.90
45945;DHT22;31655;48.972;10.686;2022-09-03T00:11:17;14.00;99.90
45945;DHT22;31655;48.972;10.686;2022-09-03T00:14:06;13.90;99.90
45945;DHT22;31655;48.972;10.686;2022-09-03T00:16:54;13.90;99.90
45945;DHT22;31655;48.972;10.686;2022-09-03T00:19:38;13.90;99.90
45945;DHT22;31655;48.972;10.686;2022-09-03T00:22:10;13.90;99.90
45945;DHT22;31655;48.972;10.686;2022-09-03T00:24:40;13.90;99.90
45945;DHT22;31655;48.972;10.686;2022-09-03T00:27:11;13.80;99.90
45945;DHT22;31655;48.972;10.686;2022-09-03T00:29:48;13.80;99.90
45945;DHT22;31655;48.972;10.686;2022-09-03T00:32:20;13.80;99.90
45945;DHT22;31655;48.972;10.686;2022-09-03T00:34:55;14.40;99.90
45945;DHT22;31655;48.972;10.686;2022-09-03T00:37:22;14.30;99.90
45945;DHT22;31655;48.972;10.686;2022-09-03T00:39:48;14.60;99.90
45945;DHT22;31655;48.972;10.686;2022-09-03T00:44:53;13.90;99.90
45945;DHT22;31655;48.972;10.686;2022-09-03T00:50:44;14.00;99.90
45945;DHT22;31655;48.972;10.686;2022-09-03T01:01:24;14.10;99.90
45945;DHT22;31655;48.972;10.686;2022-09-03T01:07:15;14.10;99.90
45945;DHT22;31655;48.972;10.686;2022-09-03T01:09:56;14.10;99.90
45945;DHT22;31655;48.972;10.686;2022-09-03T01:12:41;14.10;99.90
45945;DHT22;31655;48.972;10.686;2022-09-03T01:15:19;14.20;99.90
45945;DHT22;31655;48.972;10.686;2022-09-03T01:23:19;14.00;99.90
45945;DHT22;31655;48.972;10.686;2022-09-03T01:26:01;14.10;99.90
45945;DHT22;31655;48.972;10.686;2022-09-03T01:29:00;14.00;99.90
45945;DHT22;31655;48.972;10.686;2022-09-03T01:42:46;14.30;99.90
45945;DHT22;31655;48.972;10.686;2022-09-03T01:51:10;14.40;99.90
45945;DHT22;31655;48.972;10.686;2022-09-03T01:56:37;14.40;99.90
45945;DHT22;31655;48.972;10.686;2022-09-03T01:59:21;14.50;99.90
45945;DHT22;31655;48.972;10.686;2022-09-03T02:01:53;14.40;99.90
45945;DHT22;31655;48.972;10.686;2022-09-03T02:04:23;14.60;99.90
45945;DHT22;31655;48.972;10.686;2022-09-03T02:06:50;15.70;99.90
45945;DHT22;31655;48.972;10.686;2022-09-03T02:09:17;14.40;99.90
45945;DHT22;31655;48.972;10.686;2022-09-03T02:11:48;14.40;99.90
45945;DHT22;31655;48.972;10.686;2022-09-03T02:14:15;14.40;99.90
45945;DHT22;31655;48.972;10.686;2022-09-03T02:16:41;14.40;99.90
45945;DHT22;31655;48.972;10.686;2022-09-03T02:19:12;15.20;99.90
45945;DHT22;31655;48.972;10.686;2022-09-03T02:21:47;14.40;99.90
45945;DHT22;31655;48.972;10.686;2022-09-03T02:24:14;14.70;99.90
45945;DHT22;31655;48.972;10.686;2022-09-03T02:26:40;14.30;99.90
45945;DHT22;31655;48.972;10.686;2022-09-03T02:29:06;14.20;99.90
45945;DHT22;31655;48.972;10.686;2022-09-03T02:31:32;16.40;99.90
45945;DHT22;31655;48.972;10.686;2022-09-03T02:33:57;15.80;99.90
45945;DHT22;31655;48.972;10.686;2022-09-03T02:36:39;16.20;99.90
45945;DHT22;31655;48.972;10.686;2022-09-03T02:39:05;13.70;99.90
45945;DHT22;31655;48.972;10.686;2022-09-03T02:41:31;13.80;99.90
45945;DHT22;31655;48.972;10.686;2022-09-03T02:44:00;13.70;99.90
45945;DHT22;31655;48.972;10.686;2022-09-03T02:46:38;13.60;99.90
45945;DHT22;31655;48.972;10.686;2022-09-03T02:49:03;13.60;99.90
45945;DHT22;31655;48.972;10.686;2022-09-03T02:51:40;13.60;99.90
45945;DHT22;31655;48.972;10.686;2022-09-03T02:54:06;13.40;99.90
45945;DHT22;31655;48.972;10.686;2022-09-03T02:56:32;13.50;99.90
45945;DHT22;31655;48.972;10.686;2022-09-03T02:58:58;13.40;99.90
45945;DHT22;31655;48.972;10.686;2022-09-03T03:01:24;14.90;99.90
45945;DHT22;31655;48.972;10.686;2022-09-03T03:03:51;13.40;99.90
45945;DHT22;31655;48.972;10.686;2022-09-03T03:06:17;13.30;99.90
45945;DHT22;31655;48.972;10.686;2022-09-03T03:08:45;14.90;99.90
45945;DHT22;31655;48.972;10.686;2022-09-03T03:11:11;13.20;99.90
45945;DHT22;31655;48.972;10.686;2022-09-03T03:13:38;13.10;99.90
45945;DHT22;31655;48.972;10.686;2022-09-03T03:16:04;13.00;99.90
45945;DHT22;31655;48.972;10.686;2022-09-03T03:18:33;13.00;99.90
45945;DHT22;31655;48.972;10.686;2022-09-03T03:21:10;13.10;99.90
45945;DHT22;31655;48.972;10.686;2022-09-03T03:23:36;13.00;99.90
45945;DHT22;31655;48.972;10.686;2022-09-03T03:26:08;14.50;99.90
45945;DHT22;31655;48.972;10.686;2022-09-03T03:28:35;13.80;99.90
45945;DHT22;31655;48.972;10.686;2022-09-03T03:31:18;14.10;99.90
45945;DHT22;31655;48.972;10.686;2022-09-03T03:33:49;13.00;99.90
45945;DHT22;31655;48.972;10.686;2022-09-03T03:36:15;13.00;99.90
45945;DHT22;31655;48.972;10.686;2022-09-03T03:38:42;13.30;99.90
45945;DHT22;31655;48.972;10.686;2022-09-03T03:41:17;13.90;99.90
45945;DHT22;31655;48.972;10.686;2022-09-03T03:43:44;13.00;99.90
45945;DHT22;31655;48.972;10.686;2022-09-03T03:46:10;13.30;99.90
45945;DHT22;31655;48.972;10.686;2022-09-03T03:48:36;14.20;99.90
45945;DHT22;31655;48.972;10.686;2022-09-03T03:51:05;13.10;99.90
45945;DHT22;31655;48.972;10.686;2022-09-03T03:53:33;15.10;99.90
45945;DHT22;31655;48.972;10.686;2022-09-03T03:56:02;15.00;99.90
45945;DHT22;31655;48.972;10.686;2022-09-03T03:58:29;13.20;99.90
45945;DHT22;31655;48.972;10.686;2022-09-03T04:01:04;13.40;99.90
45945;DHT22;31655;48.972;10.686;2022-09-03T04:03:30;15.80;99.90
45945;DHT22;31655;48.972;10.686;2022-09-03T04:05:56;13.20;99.90
45945;DHT22;31655;48.972;10.686;2022-09-03T04:08:23;14.20;99.90
45945;DHT22;31655;48.972;10.686;2022-09-03T04:10:49;13.20;99.90
45945;DHT22;31655;48.972;10.686;2022-09-03T04:13:14;13.20;99.90
45945;DHT22;31655;48.972;10.686;2022-09-03T04:15:40;15.70;99.90
45945;DHT22;31655;48.972;10.686;2022-09-03T04:18:06;13.60;99.90
45945;DHT22;31655;48.972;10.686;2022-09-03T04:20:34;13.30;99.90
45945;DHT22;31655;48.972;10.686;2022-09-03T04:23:00;13.40;99.90
45945;DHT22;31655;48.972;10.686;2022-09-03T04:25:26;13.40;99.90
45945;DHT22;31655;48.972;10.686;2022-09-03T04:27:52;13.40;99.90
45945;DHT22;31655;48.972;10.686;2022-09-03T04:30:18;13.60;99.90
45945;DHT22;31655;48.972;10.686;2022-09-03T04:32:44;13.60;99.90
45945;DHT22;31655;48.972;10.686;2022-09-03T04:35:20;13.40;99.90
45945;DHT22;31655;48.972;10.686;2022-09-03T04:37:46;13.50;99.90
45945;DHT22;31655;48.972;10.686;2022-09-03T04:40:11;14.90;99.90
45945;DHT22;31655;48.972;10.686;2022-09-03T04:42:37;13.40;99.90
45945;DHT22;31655;48.972;10.686;2022-09-03T04:45:03;16.00;99.90
45945;DHT22;31655;48.972;10.686;2022-09-03T04:47:29;13.40;99.90
45945;DHT22;31655;48.972;10.686;2022-09-03T04:49:54;13.50;99.90
45945;DHT22;31655;48.972;10.686;2022-09-03T04:52:20;13.60;99.90
45945;DHT22;31655;48.972;10.686;2022-09-03T04:54:46;13.50;99.90
45945;DHT22;31655;48.972;10.686;2022-09-03T04:57:11;13.40;99.90
45945;DHT22;31655;48.972;10.686;2022-09-03T04:59:38;13.80;99.90
45945;DHT22;31655;48.972;10.686;2022-09-03T05:02:05;15.60;99.90
45945;DHT22;31655;48.972;10.686;2022-09-03T05:04:32;13.40;99.90
45945;DHT22;31655;48.972;10.686;2022-09-03T05:06:58;13.40;99.90
45945;DHT22;31655;48.972;10.686;2022-09-03T05:09:23;14.90;99.90
45945;DHT22;31655;48.972;10.686;2022-09-03T05:11:49;14.40;99.90
45945;DHT22;31655;48.972;10.686;2022-09-03T05:14:14;13.30;99.90
45945;DHT22;31655;48.972;10.686;2022-09-03T05:16:40;13.90;99.90
45945;DHT22;31655;48.972;10.686;2022-09-03T05:19:06;15.00;99.90
45945;DHT22;31655;48.972;10.686;2022-09-03T05:21:33;13.30;99.90
45945;DHT22;31655;48.972;10.686;2022-09-03T05:24:03;13.30;99.90
45945;DHT22;31655;48.972;10.686;2022-09-03T05:26:32;13.30;99.90
45945;DHT22;31655;48.972;10.686;2022-09-03T05:29:00;15.80;99.90
45945;DHT22;31655;48.972;10.686;2022-09-03T05:31:27;13.70;99.90
45945;DHT22;31655;48.972;10.686;2022-09-03T05:33:56;13.70;99.90
45945;DHT22;31655;48.972;10.686;2022-09-03T05:36:25;16.00;99.90
45945;DHT22;31655;48.972;10.686;2022-09-03T05:38:51;14.90;99.90
45945;DHT22;31655;48.972;10.686;2022-09-03T05:41:20;13.60;99.90
45945;DHT22;31655;48.972;10.686;2022-09-03T05:43:48;13.70;99.90
45945;DHT22;31655;48.972;10.686;2022-09-03T05:46:19;13.70;99.90
45945;DHT22;31655;48.972;10.686;2022-09-03T05:48:45;14.80;99.90
45945;DHT22;31655;48.972;10.686;2022-09-03T05:51:12;14.00;99.90
45945;DHT22;31655;48.972;10.686;2022-09-03T05:53:43;15.20;99.90
45945;DHT22;31655;48.972;10.686;2022-09-03T05:56:16;14.10;99.90
45945;DHT22;31655;48.972;10.686;2022-09-03T05:58:47;14.20;99.90
45945;DHT22;31655;48.972;10.686;2022-09-03T06:01:15;14.70;99.90
45945;DHT22;31655;48.972;10.686;2022-09-03T06:03:42;14.60;99.90
45945;DHT22;31655;48.972;10.686;2022-09-03T06:06:08;14.90;99.90
45945;DHT22;31655;48.972;10.686;2022-09-03T06:08:34;15.30;99.90
45945;DHT22;31655;48.972;10.686;2022-09-03T06:11:02;14.90;99.90
45945;DHT22;31655;48.972;10.686;2022-09-03T06:13:29;15.80;99.90
45945;DHT22;31655;48.972;10.686;2022-09-03T06:16:00;16.50;99.90
45945;DHT22;31655;48.972;10.686;2022-09-03T06:18:27;17.40;99.90
45945;DHT22;31655;48.972;10.686;2022-09-03T06:20:57;17.30;99.90
45945;DHT22;31655;48.972;10.686;2022-09-03T06:23:24;17.70;99.90
45945;DHT22;31655;48.972;10.686;2022-09-03T06:26:19;17.90;99.90
45945;DHT22;31655;48.972;10.686;2022-09-03T06:28:45;18.60;99.90
45945;DHT22;31655;48.972;10.686;2022-09-03T06:31:15;18.70;99.90
45945;DHT22;31655;48.972;10.686;2022-09-03T06:33:43;20.30;99.90
45945;DHT22;31655;48.972;10.686;2022-09-03T06:36:11;18.50;99.90
45945;DHT22;31655;48.972;10.686;2022-09-03T06:38:38;18.80;99.90
45945;DHT22;31655;48.972;10.686;2022-09-03T06:41:09;19.70;99.90
45945;DHT22;31655;48.972;10.686;2022-09-03T06:43:39;18.90;99.90
45945;DHT22;31655;48.972;10.686;2022-09-03T06:46:09;18.00;99.90
45945;DHT22;31655;48.972;10.686;2022-09-03T06:48:36;17.20;99.90
45945;DHT22;31655;48.972;10.686;2022-09-03T06:51:04;17.30;99.90
45945;DHT22;31655;48.972;10.686;2022-09-03T06:53:34;16.60;99.90
45945;DHT22;31655;48.972;10.686;2022-09-03T06:56:01;16.70;99.90
45945;DHT22;31655;48.972;10.686;2022-09-03T06:58:29;16.50;99.90
45945;DHT22;31655;48.972;10.686;2022-09-03T07:01:06;16.40;99.90
45945;DHT22;31655;48.972;10.686;2022-09-03T07:03:33;16.10;99.90
45945;DHT22;31655;48.972;10.686;2022-09-03T07:06:04;16.00;99.90
45945;DHT22;31655;48.972;10.686;2022-09-03T07:08:31;16.10;99.90
45945;DHT22;31655;48.972;10.686;2022-09-03T07:11:02;16.00;99.90
45945;DHT22;31655;48.972;10.686;2022-09-03T07:13:30;16.00;99.90
45945;DHT22;31655;48.972;10.686;2022-09-03T07:16:02;16.30;99.90
45945;DHT22;31655;48.972;10.686;2022-09-03T07:18:29;16.30;99.90
45945;DHT22;31655;48.972;10.686;2022-09-03T07:21:00;17.00;99.90
45945;DHT22;31655;48.972;10.686;2022-09-03T07:23:27;16.70;99.90
45945;DHT22;31655;48.972;10.686;2022-09-03T07:25:57;16.90;99.90
45945;DHT22;31655;48.972;10.686;2022-09-03T07:28:24;16.70;99.90
45945;DHT22;31655;48.972;10.686;2022-09-03T07:30:51;16.70;99.90
45945;DHT22;31655;48.972;10.686;2022-09-03T07:33:17;16.70;99.90
45945;DHT22;31655;48.972;10.686;2022-09-03T07:35:44;16.90;99.90
45945;DHT22;31655;48.972;10.686;2022-09-03T07:38:10;16.70;99.90
45945;DHT22;31655;48.972;10.686;2022-09-03T07:40:36;16.70;99.90
45945;DHT22;31655;48.972;10.686;2022-09-03T07:43:04;17.00;99.90
45945;DHT22;31655;48.972;10.686;2022-09-03T07:45:30;16.90;99.90
45945;DHT22;31655;48.972;10.686;2022-09-03T07:47:57;16.80;99.90
45945;DHT22;31655;48.972;10.686;2022-09-03T07:50:23;16.50;99.90
45945;DHT22;31655;48.972;10.686;2022-09-03T07:52:48;16.60;99.90
45945;DHT22;31655;48.972;10.686;2022-09-03T07:55:14;17.50;99.90
45945;DHT22;31655;48.972;10.686;2022-09-03T07:57:40;17.10;99.90
45945;DHT22;31655;48.972;10.686;2022-09-03T08:00:06;17.40;99.90
45945;DHT22;31655;48.972;10.686;2022-09-03T08:02:33;17.50;99.90
45945;DHT22;31655;48.972;10.686;2022-09-03T08:04:59;17.90;99.90
45945;DHT22;31655;48.972;10.686;2022-09-03T08:07:27;18.40;99.90
45945;DHT22;31655;48.972;10.686;2022-09-03T08:09:52;18.10;99.90
45945;DHT22;31655;48.972;10.686;2022-09-03T08:12:18;18.40;99.90
45945;DHT22;31655;48.972;10.686;2022-09-03T08:14:44;19.10;99.90
45945;DHT22;31655;48.972;10.686;2022-09-03T08:17:09;21.30;99.90
45945;DHT22;31655;48.972;10.686;2022-09-03T08:19:37;19.80;99.90
45945;DHT22;31655;48.972;10.686;2022-09-03T08:22:02;19.80;99.90
45945;DHT22;31655;48.972;10.686;2022-09-03T08:24:28;20.20;99.90
45945;DHT22;31655;48.972;10.686;2022-09-03T08:26:53;20.70;99.90
45945;DHT22;31655;48.972;10.686;2022-09-03T08:29:19;19.20;99.90
45945;DHT22;31655;48.972;10.686;2022-09-03T08:31:45;19.20;99.90
45945;DHT22;31655;48.972;10.686;2022-09-03T08:34:11;19.70;99.90
45945;DHT22;31655;48.972;10.686;2022-09-03T08:36:39;19.20;99.90
45945;DHT22;31655;48.972;10.686;2022-09-03T08:39:07;19.50;99.90
45945;DHT22;31655;48.972;10.686;2022-09-03T08:44:41;19.80;99.90
45945;DHT22;31655;48.972;10.686;2022-09-03T08:49:45;20.10;99.90
45945;DHT22;31655;48.972;10.686;2022-09-03T08:54:54;20.10;99.90
45945;DHT22;31655;48.972;10.686;2022-09-03T08:57:22;20.50;99.90
45945;DHT22;31655;48.972;10.686;2022-09-03T08:59:53;20.60;99.90
45945;DHT22;31655;48.972;10.686;2022-09-03T09:02:30;21.10;99.90
45945;DHT22;31655;48.972;10.686;2022-09-03T09:05:13;21.80;99.90
45945;DHT22;31655;48.972;10.686;2022-09-03T09:10:37;24.20;99.90
45945;DHT22;31655;48.972;10.686;2022-09-03T09:13:23;25.80;99.90
45945;DHT22;31655;48.972;10.686;2022-09-03T09:22:07;26.00;94.70
45945;DHT22;31655;48.972;10.686;2022-09-03T09:24:41;24.20;96.60
45945;DHT22;31655;48.972;10.686;2022-09-03T09:27:07;23.90;99.00
45945;DHT22;31655;48.972;10.686;2022-09-03T09:29:37;23.60;98.00
45945;DHT22;31655;48.972;10.686;2022-09-03T09:32:06;24.70;99.70
45945;DHT22;31655;48.972;10.686;2022-09-03T09:34:36;24.60;98.60
45945;DHT22;31655;48.972;10.686;2022-09-03T09:37:05;25.70;97.30
45945;DHT22;31655;48.972;10.686;2022-09-03T09:39:32;27.20;95.00
45945;DHT22;31655;48.972;10.686;2022-09-03T09:42:04;27.60;92.50
45945;DHT22;31655;48.972;10.686;2022-09-03T09:44:34;28.40;91.10
45945;DHT22;31655;48.972;10.686;2022-09-03T09:49:58;27.60;89.70
45945;DHT22;31655;48.972;10.686;2022-09-03T09:52:28;27.70;90.20
45945;DHT22;31655;48.972;10.686;2022-09-03T09:55:25;27.20;90.40
45945;DHT22;31655;48.972;10.686;2022-09-03T09:57:52;27.50;90.60
45945;DHT22;31655;48.972;10.686;2022-09-03T10:00:18;27.50;90.50
45945;DHT22;31655;48.972;10.686;2022-09-03T10:02:51;26.90;90.50
45945;DHT22;31655;48.972;10.686;2022-09-03T10:05:26;26.40;90.90
45945;DHT22;31655;48.972;10.686;2022-09-03T10:08:00;27.10;90.70
45945;DHT22;31655;48.972;10.686;2022-09-03T10:10:26;26.90;90.90
45945;DHT22;31655;48.972;10.686;2022-09-03T10:13:10;27.00;91.50
45945;DHT22;31655;48.972;10.686;2022-09-03T10:18:48;25.60;92.60
45945;DHT22;31655;48.972;10.686;2022-09-03T10:27:08;26.00;92.80
45945;DHT22;31655;48.972;10.686;2022-09-03T10:29:38;27.00;92.60
45945;DHT22;31655;48.972;10.686;2022-09-03T10:32:17;27.40;91.00
45945;DHT22;31655;48.972;10.686;2022-09-03T10:35:26;27.20;90.00
45945;DHT22;31655;48.972;10.686;2022-09-03T10:37:54;27.30;90.60
45945;DHT22;31655;48.972;10.686;2022-09-03T10:40:42;26.30;90.70
45945;DHT22;31655;48.972;10.686;2022-09-03T10:43:25;26.00;91.30
45945;DHT22;31655;48.972;10.686;2022-09-03T10:46:16;25.40;92.80
45945;DHT22;31655;48.972;10.686;2022-09-03T10:49:19;24.90;93.00
45945;DHT22;31655;48.972;10.686;2022-09-03T10:57:31;23.10;96.50
45945;DHT22;31655;48.972;10.686;2022-09-03T11:00:12;22.60;98.20
45945;DHT22;31655;48.972;10.686;2022-09-03T11:05:36;22.60;99.80
45945;DHT22;31655;48.972;10.686;2022-09-03T11:08:30;22.50;99.90
45945;DHT22;31655;48.972;10.686;2022-09-03T11:11:18;22.20;99.90
45945;DHT22;31655;48.972;10.686;2022-09-03T11:13:50;22.10;99.90
45945;DHT22;31655;48.972;10.686;2022-09-03T11:16:25;22.00;99.90
45945;DHT22;31655;48.972;10.686;2022-09-03T11:19:05;21.80;99.90
45945;DHT22;31655;48.972;10.686;2022-09-03T11:21:33;21.40;99.90
45945;DHT22;31655;48.972;10.686;2022-09-03T11:24:30;21.40;99.90
45945;DHT22;31655;48.972;10.686;2022-09-03T11:30:02;21.40;99.90
45945;DHT22;31655;48.972;10.686;2022-09-03T11:32:49;21.50;99.90
45945;DHT22;31655;48.972;10.686;2022-09-03T11:38:04;21.30;99.90
45945;DHT22;31655;48.972;10.686;2022-09-03T11:40:36;21.40;99.90
45945;DHT22;31655;48.972;10.686;2022-09-03T11:43:25;21.60;99.90
45945;DHT22;31655;48.972;10.686;2022-09-03T11:48:51;21.70;99.90
45945;DHT22;31655;48.972;10.686;2022-09-03T11:51:20;22.20;99.90
45945;DHT22;31655;48.972;10.686;2022-09-03T11:56:37;23.00;99.90
45945;DHT22;31655;48.972;10.686;2022-09-03T12:01:50;23.40;99.90
45945;DHT22;31655;48.972;10.686;2022-09-03T12:04:23;23.40;99.90
45945;DHT22;31655;48.972;10.686;2022-09-03T12:07:15;23.20;99.90
45945;DHT22;31655;48.972;10.686;2022-09-03T12:10:02;23.50;99.90
45945;DHT22;31655;48.972;10.686;2022-09-03T12:12:51;24.00;99.90
45945;DHT22;31655;48.972;10.686;2022-09-03T12:18:06;24.00;99.90
45945;DHT22;31655;48.972;10.686;2022-09-03T12:21:03;23.90;99.90
45945;DHT22;31655;48.972;10.686;2022-09-03T12:23:47;24.10;99.90
45945;DHT22;31655;48.972;10.686;2022-09-03T12:26:21;23.70;99.90
45945;DHT22;31655;48.972;10.686;2022-09-03T12:28:56;23.00;99.90
45945;DHT22;31655;48.972;10.686;2022-09-03T12:31:30;23.20;99.90
45945;DHT22;31655;48.972;10.686;2022-09-03T12:34:09;23.50;99.90
45945;DHT22;31655;48.972;10.686;2022-09-03T12:36:54;24.30;99.90
45945;DHT22;31655;48.972;10.686;2022-09-03T12:39:24;24.70;99.90
45945;DHT22;31655;48.972;10.686;2022-09-03T12:44:38;24.90;99.90
45945;DHT22;31655;48.972;10.686;2022-09-03T12:47:12;24.60;99.90
45945;DHT22;31655;48.972;10.686;2022-09-03T12:52:35;24.50;99.90
45945;DHT22;31655;48.972;10.686;2022-09-03T12:55:16;24.50;99.90
45945;DHT22;31655;48.972;10.686;2022-09-03T12:57:51;24.70;99.90
45945;DHT22;31655;48.972;10.686;2022-09-03T13:00:28;24.50;99.90
45945;DHT22;31655;48.972;10.686;2022-09-03T13:03:03;24.50;99.90
45945;DHT22;31655;48.972;10.686;2022-09-03T13:05:35;24.20;99.90
45945;DHT22;31655;48.972;10.686;2022-09-03T13:08:06;24.40;99.90
45945;DHT22;31655;48.972;10.686;2022-09-03T13:10:38;23.90;99.90
45945;DHT22;31655;48.972;10.686;2022-09-03T13:13:29;23.50;99.90
45945;DHT22;31655;48.972;10.686;2022-09-03T13:19:00;23.90;99.90
45945;DHT22;31655;48.972;10.686;2022-09-03T13:21:39;23.90;99.90
45945;DHT22;31655;48.972;10.686;2022-09-03T13:31:57;23.70;99.90
45945;DHT22;31655;48.972;10.686;2022-09-03T13:34:33;23.50;99.90
45945;DHT22;31655;48.972;10.686;2022-09-03T13:37:22;23.50;99.90
45945;DHT22;31655;48.972;10.686;2022-09-03T13:42:24;23.30;99.90
45945;DHT22;31655;48.972;10.686;2022-09-03T13:45:00;22.90;99.90
45945;DHT22;31655;48.972;10.686;2022-09-03T13:47:44;22.80;99.90
45945;DHT22;31655;48.972;10.686;2022-09-03T13:50:40;22.50;99.90
45945;DHT22;31655;48.972;10.686;2022-09-03T13:56:04;21.80;99.90
45945;DHT22;31655;48.972;10.686;2022-09-03T13:58:43;21.60;99.90
45945;DHT22;31655;48.972;10.686;2022-09-03T14:01:33;21.40;99.90
45945;DHT22;31655;48.972;10.686;2022-09-03T14:04:13;21.30;99.90
45945;DHT22;31655;48.972;10.686;2022-09-03T14:07:05;21.20;99.90
45945;DHT22;31655;48.972;10.686;2022-09-03T14:12:24;21.00;99.90
45945;DHT22;31655;48.972;10.686;2022-09-03T14:15:02;20.80;99.90
45945;DHT22;31655;48.972;10.686;2022-09-03T14:17:39;20.70;99.90
45945;DHT22;31655;48.972;10.686;2022-09-03T14:20:16;20.70;99.90
45945;DHT22;31655;48.972;10.686;2022-09-03T14:22:51;20.50;99.90
45945;DHT22;31655;48.972;10.686;2022-09-03T14:25:21;20.20;99.90
45945;DHT22;31655;48.972;10.686;2022-09-03T14:27:47;19.70;99.90
45945;DHT22;31655;48.972;10.686;2022-09-03T14:30:47;19.40;99.90
45945;DHT22;31655;48.972;10.686;2022-09-03T14:36:37;18.60;99.90
45945;DHT22;31655;48.972;10.686;2022-09-03T14:50:08;18.20;99.90
45945;DHT22;31655;48.972;10.686;2022-09-03T14:55:52;18.40;99.90
45945;DHT22;31655;48.972;10.686;2022-09-03T15:09:00;18.20;99.90
45945;DHT22;31655;48.972;10.686;2022-09-03T15:11:33;18.20;99.90
45945;DHT22;31655;48.972;10.686;2022-09-03T15:14:34;18.30;99.90
45945;DHT22;31655;48.972;10.686;2022-09-03T15:20:11;18.20;99.90
45945;DHT22;31655;48.972;10.686;2022-09-03T15:26:05;18.20;99.90
45945;DHT22;31655;48.972;10.686;2022-09-03T15:36:53;18.70;99.90
45945;DHT22;31655;48.972;10.686;2022-09-03T15:39:35;19.00;99.90
45945;DHT22;31655;48.972;10.686;2022-09-03T15:42:25;19.10;99.90
45945;DHT22;31655;48.972;10.686;2022-09-03T15:44:54;19.30;99.90
45945;DHT22;31655;48.972;10.686;2022-09-03T15:50:18;19.40;99.90
45945;DHT22;31655;48.972;10.686;2022-09-03T15:53:02;19.40;99.90
45945;DHT22;31655;48.972;10.686;2022-09-03T15:55:38;19.20;99.90
45945;DHT22;31655;48.972;10.686;2022-09-03T15:58:28;19.00;99.90
45945;DHT22;31655;48.972;10.686;2022-09-03T16:11:54;18.10;99.90
45945;DHT22;31655;48.972;10.686;2022-09-03T16:14:25;18.00;99.90
45945;DHT22;31655;48.972;10.686;2022-09-03T16:19:46;17.80;99.90
45945;DHT22;31655;48.972;10.686;2022-09-03T16:22:28;17.70;99.90
45945;DHT22;31655;48.972;10.686;2022-09-03T16:25:11;17.70;99.90
45945;DHT22;31655;48.972;10.686;2022-09-03T16:27:57;17.80;99.90
45945;DHT22;31655;48.972;10.686;2022-09-03T16:31:05;17.70;99.90
45945;DHT22;31655;48.972;10.686;2022-09-03T16:33:55;17.80;99.90
45945;DHT22;31655;48.972;10.686;2022-09-03T16:41:48;17.70;99.90
45945;DHT22;31655;48.972;10.686;2022-09-03T16:44:38;17.80;99.90
45945;DHT22;31655;48.972;10.686;2022-09-03T16:53:09;18.20;99.90
45945;DHT22;31655;48.972;10.686;2022-09-03T16:58:39;18.20;99.90
45945;DHT22;31655;48.972;10.686;2022-09-03T17:15:54;17.50;99.90
45945;DHT22;31655;48.972;10.686;2022-09-03T17:18:46;17.20;99.90
45945;DHT22;31655;48.972;10.686;2022-09-03T17:40:40;16.30;99.90
45945;DHT22;31655;48.972;10.686;2022-09-03T17:43:21;16.30;99.90
45945;DHT22;31655;48.972;10.686;2022-09-03T17:46:43;16.10;99.90
45945;DHT22;31655;48.972;10.686;2022-09-03T17:49:07;15.90;99.90
45945;DHT22;31655;48.972;10.686;2022-09-03T17:52:02;15.90;99.90
45945;DHT22;31655;48.972;10.686;2022-09-03T17:54:42;15.90;99.90
45945;DHT22;31655;48.972;10.686;2022-09-03T17:57:21;15.80;99.90
45945;DHT22;31655;48.972;10.686;2022-09-03T18:00:02;15.80;99.90
45945;DHT22;31655;48.972;10.686;2022-09-03T18:13:47;15.70;99.90
45945;DHT22;31655;48.972;10.686;2022-09-03T18:16:32;15.60;99.90
45945;DHT22;31655;48.972;10.686;2022-09-03T18:19:02;15.60;99.90
45945;DHT22;31655;48.972;10.686;2022-09-03T18:21:36;15.50;99.90
45945;DHT22;31655;48.972;10.686;2022-09-03T18:24:33;15.50;99.90
45945;DHT22;31655;48.972;10.686;2022-09-03T18:27:38;15.60;99.90
45945;DHT22;31655;48.972;10.686;2022-09-03T18:30:24;15.50;99.90
45945;DHT22;31655;48.972;10.686;2022-09-03T18:33:08;15.50;99.90
45945;DHT22;31655;48.972;10.686;2022-09-03T18:35:53;15.30;99.90
45945;DHT22;31655;48.972;10.686;2022-09-03T18:38:39;15.30;99.90
45945;DHT22;31655;48.972;10.686;2022-09-03T18:41:59;15.30;99.90
45945;DHT22;31655;48.972;10.686;2022-09-03T18:50:57;15.30;99.90
45945;DHT22;31655;48.972;10.686;2022-09-03T18:56:51;15.10;99.90
45945;DHT22;31655;48.972;10.686;2022-09-03T19:02:35;14.90;99.90
45945;DHT22;31655;48.972;10.686;2022-09-03T19:05:33;14.70;99.90
45945;DHT22;31655;48.972;10.686;2022-09-03T19:08:31;14.90;99.90
45945;DHT22;31655;48.972;10.686;2022-09-03T19:11:39;14.90;99.90
45945;DHT22;31655;48.972;10.686;2022-09-03T19:14:33;14.80;99.90
45945;DHT22;31655;48.972;10.686;2022-09-03T19:20:30;14.60;99.90
45945;DHT22;31655;48.972;10.686;2022-09-03T19:23:15;14.50;99.90
45945;DHT22;31655;48.972;10.686;2022-09-03T19:26:27;14.40;99.90
45945;DHT22;31655;48.972;10.686;2022-09-03T19:29:32;14.40;99.90
45945;DHT22;31655;48.972;10.686;2022-09-03T19:32:26;14.40;99.90
45945;DHT22;31655;48.972;10.686;2022-09-03T19:35:18;14.30;99.90
45945;DHT22;31655;48.972;10.686;2022-09-03T19:46:58;14.30;99.90
45945;DHT22;31655;48.972;10.686;2022-09-03T19:55:44;14.10;99.90
45945;DHT22;31655;48.972;10.686;2022-09-03T19:58:30;14.10;99.90
45945;DHT22;31655;48.972;10.686;2022-09-03T20:01:16;14.10;99.90
45945;DHT22;31655;48.972;10.686;2022-09-03T20:04:13;14.10;99.90
45945;DHT22;31655;48.972;10.686;2022-09-03T20:06:59;14.20;99.90
45945;DHT22;31655;48.972;10.686;2022-09-03T20:09:45;14.20;99.90
45945;DHT22;31655;48.972;10.686;2022-09-03T20:12:38;14.20;99.90
45945;DHT22;31655;48.972;10.686;2022-09-03T20:15:06;14.10;99.90
45945;DHT22;31655;48.972;10.686;2022-09-03T20:17:56;14.10;99.90
45945;DHT22;31655;48.972;10.686;2022-09-03T20:20:51;14.20;99.90
45945;DHT22;31655;48.972;10.686;2022-09-03T20:29:24;14.00;99.90
45945;DHT22;31655;48.972;10.686;2022-09-03T20:31:54;13.90;99.90
45945;DHT22;31655;48.972;10.686;2022-09-03T20:37:10;13.70;99.90
45945;DHT22;31655;48.972;10.686;2022-09-03T20:59:02;13.70;99.90